createdAt,value
2019-01-20T00:01:22.923Z,8.53
2019-01-20T00:03:50.319Z,9.10
2019-01-20T00:06:19.023Z,8.83
2019-01-20T00:08:46.435Z,8.53
2019-01-20T00:11:16.687Z,8.50
2019-01-20T00:13:43.024Z,8.87
2019-01-20T00:16:10.750Z,8.87
2019-01-20T00:18:38.258Z,8.47
2019-01-20T00:21:05.557Z,8.80
2019-01-20T00:23:32.936Z,8.20
2019-01-20T00:26:00.284Z,8.40
2019-01-20T00:28:27.724Z,9.10
2019-01-20T00:30:55.719Z,9.03
2019-01-20T00:33:23.221Z,9.27
2019-01-20T00:35:50.744Z,9.40
2019-01-20T00:38:18.195Z,9.07
2019-01-20T00:40:45.552Z,9.63
2019-01-20T00:43:13.064Z,9.17
2019-01-20T00:45:40.480Z,9.17
2019-01-20T00:48:08.100Z,9.47
2019-01-20T00:50:35.527Z,9.57
2019-01-20T00:53:03.372Z,9.70
2019-01-20T00:55:30.834Z,9.97
2019-01-20T00:57:58.141Z,10.10
2019-01-20T01:00:26.858Z,9.00
2019-01-20T01:02:54.257Z,9.57
2019-01-20T01:05:22.017Z,9.47
2019-01-20T01:07:50.327Z,9.60
2019-01-20T01:10:18.007Z,9.57
2019-01-20T01:12:47.646Z,9.77
2019-01-20T01:15:15.140Z,9.30
2019-01-20T01:17:42.617Z,9.77
2019-01-20T01:20:11.723Z,10.13
2019-01-20T01:22:39.085Z,9.43
2019-01-20T01:25:08.590Z,9.17
2019-01-20T01:27:35.978Z,9.77
2019-01-20T01:30:05.951Z,9.53
2019-01-20T01:32:41.278Z,9.17
2019-01-20T01:35:08.979Z,8.80
2019-01-20T01:37:36.412Z,9.63
2019-01-20T01:40:04.403Z,8.73
2019-01-20T01:42:31.899Z,9.17
2019-01-20T01:44:59.351Z,9.67
2019-01-20T01:47:26.833Z,8.97
2019-01-20T01:49:54.201Z,8.40
2019-01-20T01:52:21.736Z,8.40
2019-01-20T01:54:49.111Z,9.57
2019-01-20T01:57:16.444Z,8.63
2019-01-20T01:59:43.929Z,9.13
2019-01-20T02:02:11.413Z,9.20
2019-01-20T02:04:38.886Z,8.97
2019-01-20T02:07:06.289Z,8.43
2019-01-20T02:09:33.743Z,9.23
2019-01-20T02:12:01.358Z,9.83
2019-01-20T02:14:28.787Z,9.27
2019-01-20T02:16:56.123Z,8.90
2019-01-20T02:19:23.499Z,9.43
2019-01-20T02:21:50.931Z,8.80
2019-01-20T02:24:18.408Z,8.43
2019-01-20T02:26:45.744Z,8.43
2019-01-20T02:29:13.201Z,8.00
2019-01-20T02:31:40.656Z,8.77
2019-01-20T02:34:08.091Z,8.50
2019-01-20T02:36:35.599Z,8.80
2019-01-20T02:39:04.673Z,8.80
2019-01-20T02:41:32.092Z,8.60
2019-01-20T02:43:59.481Z,8.33
2019-01-20T02:46:27.039Z,9.07
2019-01-20T02:48:54.416Z,9.13
2019-01-20T02:51:21.857Z,8.50
2019-01-20T02:53:49.226Z,8.47
2019-01-20T02:56:16.584Z,8.80
2019-01-20T02:58:43.921Z,8.90
2019-01-20T03:01:11.332Z,8.70
2019-01-20T03:03:38.751Z,8.33
2019-01-20T03:06:06.170Z,8.50
2019-01-20T03:08:33.682Z,8.87
2019-01-20T03:11:01.112Z,8.53
2019-01-20T03:13:28.547Z,8.80
2019-01-20T03:15:55.954Z,8.83
2019-01-20T03:18:23.504Z,8.60
2019-01-20T03:20:50.971Z,8.70
2019-01-20T03:23:18.408Z,8.67
2019-01-20T03:25:46.118Z,8.50
2019-01-20T03:28:13.549Z,8.43
2019-01-20T03:30:41.089Z,8.77
2019-01-20T03:33:08.471Z,8.90
2019-01-20T03:35:35.987Z,8.80
2019-01-20T03:38:03.339Z,8.63
2019-01-20T03:40:30.770Z,9.27
2019-01-20T03:42:58.125Z,9.40
2019-01-20T03:45:40.587Z,8.53
2019-01-20T03:48:08.068Z,8.47
2019-01-20T03:50:35.581Z,7.37
2019-01-20T03:53:03.083Z,8.23
2019-01-20T03:55:30.404Z,8.10
2019-01-20T03:57:57.816Z,8.63
2019-01-20T04:00:25.434Z,8.17
2019-01-20T04:02:55.413Z,7.97
2019-01-20T04:05:22.828Z,8.17
2019-01-20T04:07:50.129Z,8.03
2019-01-20T04:10:17.635Z,8.20
2019-01-20T04:12:45.053Z,8.30
2019-01-20T04:15:13.064Z,8.80
2019-01-20T04:17:40.371Z,8.17
2019-01-20T04:20:07.964Z,8.27
2019-01-20T04:22:35.482Z,8.07
2019-01-20T04:25:03.932Z,8.03
2019-01-20T04:27:31.334Z,7.87
2019-01-20T04:29:58.725Z,8.53
2019-01-20T04:32:28.119Z,7.93
2019-01-20T04:34:55.500Z,7.40
2019-01-20T04:37:22.833Z,8.00
2019-01-20T04:39:50.118Z,7.90
2019-01-20T04:42:17.580Z,7.50
2019-01-20T04:44:45.057Z,7.33
2019-01-20T04:47:12.470Z,7.80
2019-01-20T04:49:39.994Z,8.10
2019-01-20T04:52:07.385Z,7.40
2019-01-20T04:54:34.783Z,7.77
2019-01-20T04:57:02.219Z,7.67
2019-01-20T04:59:29.693Z,7.40
2019-01-20T05:01:57.168Z,8.10
2019-01-20T05:04:24.610Z,8.73
2019-01-20T05:06:52.059Z,7.83
2019-01-20T05:09:19.597Z,8.20
2019-01-20T05:11:47.089Z,7.53
2019-01-20T05:14:14.422Z,7.30
2019-01-20T05:16:41.763Z,7.33
2019-01-20T05:19:09.159Z,7.73
2019-01-20T05:21:36.487Z,7.13
2019-01-20T05:24:03.683Z,7.60
2019-01-20T05:26:31.014Z,7.60
2019-01-20T05:28:58.427Z,7.73
2019-01-20T05:31:25.747Z,7.80
2019-01-20T05:33:53.079Z,7.30
2019-01-20T05:36:20.346Z,7.80
2019-01-20T05:38:47.662Z,7.30
2019-01-20T05:41:14.929Z,7.30
2019-01-20T05:43:42.278Z,7.10
2019-01-20T05:46:09.626Z,7.03
2019-01-20T05:48:36.949Z,7.37
2019-01-20T05:51:04.288Z,7.27
2019-01-20T05:53:31.575Z,7.27
2019-01-20T05:55:58.851Z,7.40
2019-01-20T05:58:26.222Z,7.47
2019-01-20T06:00:53.633Z,7.87
2019-01-20T06:03:20.910Z,7.13
2019-01-20T06:05:48.452Z,7.07
2019-01-20T06:08:15.853Z,7.60
2019-01-20T06:10:43.140Z,7.53
2019-01-20T06:13:10.429Z,7.57
2019-01-20T06:15:37.736Z,7.37
2019-01-20T06:18:05.419Z,7.77
2019-01-20T06:20:32.887Z,7.27
2019-01-20T06:23:00.186Z,7.40
2019-01-20T06:25:27.473Z,7.67
2019-01-20T06:27:54.736Z,7.70
2019-01-20T06:30:27.538Z,7.67
2019-01-20T06:32:54.950Z,7.30
2019-01-20T06:35:22.282Z,7.23
2019-01-20T06:37:49.622Z,7.03
2019-01-20T06:40:17.048Z,7.37
2019-01-20T06:42:44.378Z,7.53
2019-01-20T06:45:11.829Z,7.47
2019-01-20T06:47:39.284Z,6.97
2019-01-20T06:50:08.894Z,7.30
2019-01-20T06:52:36.380Z,7.47
2019-01-20T06:55:03.981Z,7.57
2019-01-20T06:57:31.480Z,7.00
2019-01-20T06:59:58.940Z,6.83
2019-01-20T07:02:26.420Z,7.60
2019-01-20T07:04:53.837Z,7.27
2019-01-20T07:07:21.215Z,7.27
2019-01-20T07:09:48.774Z,7.33
2019-01-20T07:12:16.241Z,7.53
2019-01-20T07:14:43.652Z,6.47
2019-01-20T07:17:11.164Z,6.33
2019-01-20T07:19:38.483Z,6.27
2019-01-20T07:22:05.890Z,6.07
2019-01-20T07:24:33.399Z,6.70
2019-01-20T07:27:00.786Z,6.83
2019-01-20T07:29:28.133Z,6.50
2019-01-20T07:31:55.758Z,7.90
2019-01-20T07:34:23.133Z,7.47
2019-01-20T07:36:57.133Z,8.63
2019-01-20T07:39:24.523Z,7.43
2019-01-20T07:41:52.123Z,7.33
2019-01-20T07:44:54.826Z,7.60
2019-01-20T07:47:25.722Z,6.57
2019-01-20T07:49:53.144Z,6.60
2019-01-20T07:52:20.899Z,6.17
2019-01-20T07:54:48.669Z,6.50
2019-01-20T07:57:15.939Z,6.70
2019-01-20T07:59:43.459Z,6.33
2019-01-20T08:02:10.859Z,6.63
2019-01-20T08:04:38.341Z,6.07
2019-01-20T08:07:05.972Z,5.80
2019-01-20T08:09:33.470Z,6.40
2019-01-20T08:12:01.240Z,5.67
2019-01-20T08:14:28.874Z,5.67
2019-01-20T08:16:56.325Z,5.90
2019-01-20T08:19:23.891Z,6.03
2019-01-20T08:21:51.331Z,6.30
2019-01-20T08:24:18.887Z,5.73
2019-01-20T08:26:48.019Z,6.20
2019-01-20T08:29:15.725Z,5.87
2019-01-20T08:31:43.248Z,5.53
2019-01-20T08:34:11.780Z,5.13
2019-01-20T08:36:39.458Z,4.90
2019-01-20T08:39:07.446Z,4.63
2019-01-20T08:41:34.967Z,5.33
2019-01-20T08:44:05.559Z,5.13
2019-01-20T08:46:58.141Z,5.23
2019-01-20T08:49:25.612Z,5.30
2019-01-20T08:51:53.187Z,5.63
2019-01-20T08:54:21.872Z,5.20
2019-01-20T08:56:51.432Z,4.73
2019-01-20T08:59:19.355Z,4.60
2019-01-20T09:01:46.814Z,5.00
2019-01-20T09:04:14.263Z,5.13
2019-01-20T09:06:44.128Z,4.37
2019-01-20T09:09:11.838Z,4.93
2019-01-20T09:11:39.145Z,5.17
2019-01-20T09:14:07.862Z,4.93
2019-01-20T09:16:35.540Z,4.63
2019-01-20T09:19:03.046Z,4.97
2019-01-20T09:21:30.560Z,5.00
2019-01-20T09:24:00.048Z,4.37
2019-01-20T09:26:27.452Z,5.73
2019-01-20T09:28:55.144Z,5.27
2019-01-20T09:31:22.924Z,4.97
2019-01-20T09:33:50.878Z,5.27
2019-01-20T09:36:19.118Z,5.13
2019-01-20T09:38:47.293Z,4.93
2019-01-20T09:41:15.064Z,5.27
2019-01-20T09:43:47.085Z,5.17
2019-01-20T09:46:12.678Z,4.80
2019-01-20T09:48:45.655Z,4.97
2019-01-20T09:51:13.310Z,5.23
2019-01-20T09:53:40.855Z,4.63
2019-01-20T09:56:08.814Z,4.50
2019-01-20T09:58:36.582Z,4.50
2019-01-20T10:01:04.318Z,4.60
2019-01-20T10:03:32.134Z,4.87
2019-01-20T10:05:59.716Z,4.90
2019-01-20T10:08:27.331Z,4.70
2019-01-20T10:10:54.655Z,4.80
2019-01-20T10:13:22.152Z,4.83
2019-01-20T10:15:52.448Z,4.53
2019-01-20T10:18:20.234Z,5.00
2019-01-20T10:20:47.713Z,4.93
2019-01-20T10:23:15.207Z,5.27
2019-01-20T10:25:42.871Z,4.57
2019-01-20T10:28:13.139Z,5.60
2019-01-20T10:30:40.752Z,5.30
2019-01-20T10:33:11.268Z,5.63
2019-01-20T10:36:04.925Z,5.00
2019-01-20T10:38:37.382Z,5.43
2019-01-20T10:41:06.041Z,4.97
2019-01-20T10:43:36.676Z,5.70
2019-01-20T10:46:04.128Z,5.13
2019-01-20T10:48:33.733Z,5.10
2019-01-20T10:51:03.871Z,5.00
2019-01-20T10:53:31.877Z,5.40
2019-01-20T10:55:59.768Z,5.33
2019-01-20T10:58:27.193Z,5.47
2019-01-20T11:00:54.534Z,5.10
2019-01-20T11:03:22.133Z,5.00
2019-01-20T11:05:49.598Z,5.33
2019-01-20T11:08:17.150Z,5.40
2019-01-20T11:10:44.531Z,6.33
2019-01-20T11:13:11.978Z,6.17
2019-01-20T11:15:39.426Z,5.90
2019-01-20T11:18:06.872Z,6.07
2019-01-20T11:20:34.518Z,6.57
2019-01-20T11:23:02.032Z,6.27
2019-01-20T11:25:32.538Z,6.67
2019-01-20T11:28:00.321Z,6.50
2019-01-20T11:30:28.017Z,6.87
2019-01-20T11:32:55.558Z,7.30
2019-01-20T11:35:23.104Z,6.87
2019-01-20T11:37:50.804Z,7.60
2019-01-20T11:40:18.110Z,7.47
2019-01-20T11:42:45.472Z,7.50
2019-01-20T11:45:15.009Z,8.57
2019-01-20T11:47:42.822Z,8.90
2019-01-20T11:50:10.765Z,9.67
2019-01-20T11:52:38.162Z,9.67
2019-01-20T11:55:06.717Z,10.17
2019-01-20T11:57:33.988Z,9.83
2019-01-20T12:00:01.802Z,10.97
2019-01-20T12:02:29.206Z,10.77
2019-01-20T12:05:01.039Z,11.53
2019-01-20T12:07:28.419Z,11.40
2019-01-20T12:09:55.853Z,11.10
2019-01-20T12:12:23.769Z,11.93
2019-01-20T12:14:51.681Z,11.33
2019-01-20T12:17:19.183Z,11.23
2019-01-20T12:19:46.663Z,11.23
2019-01-20T12:22:14.297Z,12.07
2019-01-20T12:24:41.852Z,11.97
2019-01-20T12:27:09.300Z,12.30
2019-01-20T12:29:37.745Z,12.70
2019-01-20T12:32:05.300Z,11.53
2019-01-20T12:34:32.835Z,12.13
2019-01-20T12:37:00.507Z,12.13
2019-01-20T12:39:28.437Z,12.20
2019-01-20T12:41:58.542Z,12.50
2019-01-20T12:44:31.416Z,12.20
2019-01-20T12:46:57.493Z,12.20
2019-01-20T12:49:26.241Z,11.47
2019-01-20T12:51:53.735Z,11.27
2019-01-20T12:54:21.378Z,12.00
2019-01-20T12:56:49.315Z,12.03
2019-01-20T12:59:19.994Z,13.27
2019-01-20T13:01:47.532Z,13.80
2019-01-20T13:04:14.951Z,12.50
2019-01-20T13:06:42.670Z,13.93
2019-01-20T13:09:10.104Z,12.17
2019-01-20T13:11:38.068Z,12.37
2019-01-20T13:14:05.553Z,12.83
2019-01-20T13:16:33.050Z,13.17
2019-01-20T13:19:00.641Z,11.97
2019-01-20T13:21:28.232Z,12.57
2019-01-20T13:24:47.136Z,12.43
2019-01-20T13:27:15.876Z,11.83
2019-01-20T13:29:43.643Z,12.77
2019-01-20T13:32:11.204Z,12.30
2019-01-20T13:34:39.165Z,12.43
2019-01-20T13:37:07.366Z,11.87
2019-01-20T13:39:34.900Z,12.33
2019-01-20T13:42:02.449Z,11.93
2019-01-20T13:44:29.936Z,12.23
2019-01-20T13:47:00.457Z,12.60
2019-01-20T13:52:34.603Z,11.73
2019-01-20T13:55:02.629Z,12.20
2019-01-20T13:57:30.247Z,12.00
2019-01-20T13:59:59.808Z,12.13
2019-01-20T14:02:54.572Z,11.70
2019-01-20T14:05:22.294Z,12.47
2019-01-20T14:07:50.060Z,13.73
2019-01-20T14:10:18.608Z,12.70
2019-01-20T14:12:46.284Z,11.33
2019-01-20T14:15:14.571Z,10.73
2019-01-20T14:17:42.725Z,10.53
2019-01-20T14:20:18.041Z,10.57
2019-01-20T14:22:45.776Z,10.60
2019-01-20T14:25:15.257Z,9.70
2019-01-20T14:27:43.042Z,9.90
2019-01-20T14:30:16.851Z,10.17
2019-01-20T14:32:44.371Z,10.33
2019-01-20T14:35:12.057Z,10.17
2019-01-20T14:37:39.637Z,9.47
2019-01-20T14:40:21.315Z,9.30
2019-01-20T14:43:00.914Z,9.77
2019-01-20T14:49:59.492Z,9.23
2019-01-20T14:52:30.255Z,10.70
2019-01-20T14:54:57.848Z,9.50
2019-01-20T14:57:25.266Z,9.90
2019-01-20T14:59:52.956Z,9.77
2019-01-20T15:02:20.492Z,9.63
2019-01-20T15:04:48.051Z,9.47
2019-01-20T15:07:15.613Z,9.97
2019-01-20T15:09:43.357Z,9.80
2019-01-20T15:12:10.778Z,9.90
2019-01-20T15:14:38.365Z,10.30
2019-01-20T15:17:05.943Z,9.80
2019-01-20T15:19:33.452Z,9.20
2019-01-20T15:22:01.538Z,10.20
2019-01-20T15:24:40.752Z,9.33
2019-01-20T15:27:12.536Z,9.97
2019-01-20T15:29:40.335Z,9.27
2019-01-20T15:32:07.771Z,9.93
2019-01-20T15:34:35.398Z,10.87
2019-01-20T15:37:03.011Z,10.23
2019-01-20T15:39:30.766Z,9.70
2019-01-20T15:41:58.395Z,10.43
2019-01-20T15:46:31.134Z,9.73
2019-01-20T15:48:58.905Z,10.10
2019-01-20T15:51:26.287Z,10.00
2019-01-20T15:53:56.977Z,10.27
2019-01-20T15:56:26.534Z,10.20
2019-01-20T15:58:54.220Z,10.27
2019-01-20T16:01:22.144Z,9.83
2019-01-20T16:03:50.638Z,10.17
2019-01-20T16:06:18.535Z,10.17
2019-01-20T16:08:46.654Z,9.90
2019-01-20T16:11:15.713Z,9.87
2019-01-20T16:13:43.351Z,10.10
2019-01-20T16:19:00.525Z,9.50
2019-01-20T16:21:31.863Z,9.80
2019-01-20T16:23:59.390Z,9.73
2019-01-20T16:26:27.584Z,10.23
2019-01-20T16:28:56.381Z,10.90
2019-01-20T16:31:24.485Z,10.13
2019-01-20T16:33:52.498Z,11.07
2019-01-20T16:36:20.094Z,10.87
2019-01-20T16:39:12.963Z,10.30
2019-01-20T16:41:40.809Z,11.13
2019-01-20T16:44:08.208Z,10.40
2019-01-20T16:46:36.118Z,10.67
2019-01-20T16:51:44.861Z,10.60
2019-01-20T16:55:01.370Z,11.27
2019-01-20T17:00:18.313Z,12.23
2019-01-20T17:02:48.053Z,11.33
2019-01-20T17:05:15.944Z,11.53
2019-01-20T17:07:46.141Z,12.30
2019-01-20T17:10:19.403Z,11.97
2019-01-20T17:12:47.174Z,11.37
2019-01-20T17:15:24.225Z,11.80
2019-01-20T17:17:51.964Z,11.67
2019-01-20T17:20:19.485Z,11.87
2019-01-20T17:22:48.720Z,11.83
2019-01-20T17:25:16.807Z,12.83
2019-01-20T17:27:44.379Z,11.07
2019-01-20T17:30:16.221Z,12.10
2019-01-20T17:32:45.201Z,12.57
2019-01-20T17:35:14.131Z,12.77
2019-01-20T17:38:01.130Z,12.57
2019-01-20T17:40:28.641Z,13.40
2019-01-20T17:42:56.195Z,12.73
2019-01-20T17:45:33.071Z,12.27
2019-01-20T17:48:00.555Z,12.17
2019-01-20T17:50:35.053Z,12.70
2019-01-20T17:53:03.246Z,11.77
2019-01-20T17:55:36.279Z,12.20
2019-01-20T17:58:04.237Z,12.70
2019-01-20T18:00:41.246Z,12.97
2019-01-20T18:03:08.984Z,12.83
2019-01-20T18:05:39.450Z,13.27
2019-01-20T18:08:07.660Z,13.07
2019-01-20T18:10:35.147Z,13.07
2019-01-20T18:13:04.014Z,13.93
2019-01-20T18:15:31.571Z,14.40
2019-01-20T18:17:59.171Z,13.80
2019-01-20T18:20:52.355Z,13.93
2019-01-20T18:23:20.011Z,13.50
2019-01-20T18:25:47.418Z,13.37
2019-01-20T18:28:14.949Z,14.53
2019-01-20T18:30:42.769Z,14.57
2019-01-20T18:33:10.487Z,15.47
2019-01-20T18:35:38.071Z,15.40
2019-01-20T18:38:05.466Z,14.83
2019-01-20T18:40:33.216Z,15.13
2019-01-20T18:43:00.611Z,16.07
2019-01-20T18:45:28.995Z,14.93
2019-01-20T18:47:56.548Z,16.50
2019-01-20T18:50:26.277Z,15.63
2019-01-20T18:52:53.914Z,16.17
2019-01-20T18:55:21.609Z,17.00
2019-01-20T18:57:49.046Z,17.97
2019-01-20T19:00:19.390Z,16.93
2019-01-20T19:02:47.106Z,16.40
2019-01-20T19:05:15.169Z,16.17
2019-01-20T19:07:42.925Z,16.60
2019-01-20T19:10:10.803Z,16.77
2019-01-20T19:12:38.835Z,18.37
2019-01-20T19:15:07.775Z,18.13
2019-01-20T19:17:35.262Z,17.07
2019-01-20T19:20:03.871Z,19.47
2019-01-20T19:22:31.335Z,16.67
2019-01-20T19:24:58.796Z,16.30
2019-01-20T19:27:26.220Z,17.67
2019-01-20T19:29:53.886Z,17.47
2019-01-20T19:32:21.478Z,18.00
2019-01-20T19:34:48.827Z,17.97
2019-01-20T19:37:16.331Z,17.97
2019-01-20T19:39:50.349Z,18.27
2019-01-20T19:42:13.746Z,17.67
2019-01-20T19:44:41.846Z,17.77
2019-01-20T19:47:09.219Z,19.27
2019-01-20T19:49:38.980Z,18.53
2019-01-20T19:52:06.517Z,18.20
2019-01-20T19:54:34.013Z,17.63
2019-01-20T19:57:01.434Z,17.70
2019-01-20T19:59:29.004Z,17.83
2019-01-20T20:02:05.768Z,17.60
2019-01-20T20:04:33.217Z,17.83
2019-01-20T20:07:00.743Z,17.27
2019-01-20T20:09:45.203Z,17.63
2019-01-20T20:12:12.743Z,18.93
2019-01-20T20:14:41.040Z,17.37
2019-01-20T20:19:41.781Z,18.27
2019-01-20T20:22:12.955Z,18.07
2019-01-20T20:24:40.603Z,17.90
2019-01-20T20:27:08.750Z,18.10
2019-01-20T20:29:36.197Z,18.13
2019-01-20T20:32:03.958Z,18.33
2019-01-20T20:34:31.544Z,18.83
2019-01-20T20:37:00.413Z,18.43
2019-01-20T20:39:28.346Z,19.77
2019-01-20T20:41:56.008Z,18.50
2019-01-20T20:44:23.728Z,18.17
2019-01-20T20:46:51.575Z,18.63
2019-01-20T20:49:19.339Z,20.03
2019-01-20T20:51:46.877Z,20.57
2019-01-20T20:54:14.734Z,18.50
2019-01-20T20:56:42.365Z,18.10
2019-01-20T20:59:10.395Z,19.13
2019-01-20T21:01:37.993Z,18.43
2019-01-20T21:04:06.955Z,20.30
2019-01-20T21:06:34.819Z,19.93
2019-01-20T21:09:06.194Z,19.20
2019-01-20T21:11:36.183Z,19.40
2019-01-20T21:14:04.056Z,18.67
2019-01-20T21:16:37.719Z,18.53
2019-01-20T21:19:01.040Z,19.60
2019-01-20T21:21:28.579Z,18.03
2019-01-20T21:23:57.209Z,19.33
2019-01-20T21:26:24.960Z,19.03
2019-01-20T21:28:52.557Z,19.43
2019-01-20T21:31:20.879Z,18.70
2019-01-20T21:33:49.909Z,19.37
2019-01-20T21:36:21.095Z,19.00
2019-01-20T21:38:49.749Z,19.27
2019-01-20T21:41:17.722Z,18.23
2019-01-20T21:43:46.116Z,18.57
2019-01-20T21:46:13.748Z,18.73
2019-01-20T21:48:42.310Z,18.73
2019-01-20T21:54:03.474Z,17.60
2019-01-20T21:56:31.126Z,18.33
2019-01-20T21:58:58.672Z,17.90
2019-01-20T22:01:26.233Z,17.90
2019-01-20T22:03:54.192Z,18.33
2019-01-20T22:06:21.894Z,19.00
2019-01-20T22:08:49.427Z,18.93
2019-01-20T22:11:16.946Z,19.73
2019-01-20T22:13:45.062Z,19.07
2019-01-20T22:16:13.986Z,18.97
2019-01-20T22:18:42.627Z,21.47
2019-01-20T22:21:10.218Z,19.23
2019-01-20T22:23:37.916Z,18.87
2019-01-20T22:26:05.480Z,20.70
2019-01-20T22:28:32.964Z,20.03
2019-01-20T22:31:00.643Z,18.60
2019-01-20T22:33:28.145Z,18.90
2019-01-20T22:35:55.626Z,19.87
2019-01-20T22:38:23.389Z,19.13
2019-01-20T22:40:50.932Z,21.23
2019-01-20T22:43:21.343Z,20.27
2019-01-20T22:45:48.832Z,18.87
2019-01-20T22:48:16.422Z,19.53
2019-01-20T22:50:44.059Z,20.47
2019-01-20T22:53:11.601Z,20.30
2019-01-20T22:55:39.362Z,18.87
2019-01-20T22:58:07.231Z,20.40
2019-01-20T23:00:47.446Z,20.53
2019-01-20T23:03:15.646Z,21.13
2019-01-20T23:05:43.359Z,19.03
2019-01-20T23:08:10.946Z,19.77
2019-01-20T23:10:38.413Z,20.17
2019-01-20T23:13:05.969Z,20.27
2019-01-20T23:15:33.516Z,20.50
2019-01-20T23:18:00.936Z,21.20
2019-01-20T23:20:28.355Z,20.40
2019-01-20T23:22:56.303Z,20.33
2019-01-20T23:25:29.926Z,19.67
2019-01-20T23:27:57.562Z,20.23
2019-01-20T23:30:24.927Z,19.63
2019-01-20T23:32:52.171Z,18.93
2019-01-20T23:35:19.640Z,20.53
2019-01-20T23:37:47.161Z,20.13
2019-01-20T23:40:14.665Z,20.27
2019-01-20T23:42:42.020Z,19.97
2019-01-20T23:45:09.652Z,20.37
2019-01-20T23:47:37.105Z,19.00
2019-01-20T23:50:06.040Z,19.43
2019-01-20T23:52:33.688Z,19.17
2019-01-20T23:55:04.159Z,19.83
2019-01-20T23:57:31.823Z,19.87
2019-01-20T23:59:59.258Z,18.97
